עמוד ראשי
METAR-TAF:

METAR-TAF

שדות תעופה :

Macas, אקוודור

קו רוחב: 02-17-57-S, קו אורך: 078-07-15-W, גובה: 1052מטר

תצפית מזג אוויר נוכחית

הדו"ח נערך לפני 1 שעות ו 2דקות, בשעה 16:00 UTC
רוח 7קשר מכיוון מזרח/צפון-מזרח
טמפרטורת 26 צלסיוס
לחות 70%
לחץ 1019 hPa
ראות 10 קילומטר או יותר
מעט עננים בגובה 3000רגל
עננים פזורים בגובה 20000רגל

METAR: SEMC 241600Z 06007KT 9999 FEW030 SCT200 26/20 Q1019 RMK A3009

זמן: 12:02 (17:02 UTC)


TAF: חסר

תצפיות ותחזיות מזג אוויר לגבי יותר מ- 4,000 שדות תעופה ברחבי העולם. דוחות METAR ו- TAF.

התחנות הזמינות מסומנות בנקודות צהובות ואדומות על גבי המפה.

העבר את העכבר לנקודה הצבעונית על מנת לראות את שם התחנה.

לאחר מכן, לחץ כדי לראות את תוכן ואת תחזיות מזג האוויר.

כדי לשנות את המפה: לחץ על הכפתורים הירוקים עם הפלוס השחור כדי להתקרב; על הכפתור הירוק עם המקף כדי להתרחק; או בחיצים הירוקים למפות סמוכות.


METAR-TAF: